createdAt,value
2022-12-13T00:00:53.037Z,1012.75
2022-12-13T00:03:08.533Z,1012.77
2022-12-13T00:05:20.673Z,1012.74
2022-12-13T00:07:33.709Z,1012.75
2022-12-13T00:09:54.496Z,1012.76
2022-12-13T00:12:07.959Z,1012.72
2022-12-13T00:14:25.346Z,1012.81
2022-12-13T00:16:37.169Z,1012.76
2022-12-13T00:18:54.695Z,1012.76
2022-12-13T00:21:16.150Z,1012.71
2022-12-13T00:23:33.364Z,1012.71
2022-12-13T00:25:49.296Z,1012.67
2022-12-13T00:28:02.853Z,1012.63
2022-12-13T00:30:18.629Z,1012.64
2022-12-13T00:32:34.034Z,1012.62
2022-12-13T00:34:53.982Z,1012.59
2022-12-13T00:37:10.314Z,1012.59
2022-12-13T00:39:23.453Z,1012.63
2022-12-13T00:41:38.104Z,1012.54
2022-12-13T00:43:55.154Z,1012.49
2022-12-13T00:46:10.763Z,1012.49
2022-12-13T00:48:24.427Z,1012.46
2022-12-13T00:50:40.820Z,1012.44
2022-12-13T00:52:55.610Z,1012.45
2022-12-13T00:55:14.720Z,1012.46
2022-12-13T00:57:32.087Z,1012.46
2022-12-13T00:59:48.363Z,1012.39
2022-12-13T01:02:00.501Z,1012.38
2022-12-13T01:04:18.591Z,1012.31
2022-12-13T01:06:36.722Z,1012.28
2022-12-13T01:08:51.089Z,1012.32
2022-12-13T01:11:03.860Z,1012.33
2022-12-13T01:13:19.521Z,1012.30
2022-12-13T01:15:35.054Z,1012.34
2022-12-13T01:17:50.605Z,1012.35
2022-12-13T01:20:08.769Z,1012.28
2022-12-13T01:22:23.971Z,1012.36
2022-12-13T01:24:36.947Z,1012.30
2022-12-13T01:26:52.729Z,1012.30
2022-12-13T01:29:11.481Z,1012.31
2022-12-13T01:31:28.682Z,1012.29
2022-12-13T01:33:45.266Z,1012.23
2022-12-13T01:36:00.085Z,1012.17
2022-12-13T01:38:16.485Z,1012.19
2022-12-13T01:40:38.482Z,1012.20
2022-12-13T01:42:53.514Z,1012.18
2022-12-13T01:45:14.362Z,1012.15
2022-12-13T01:47:31.382Z,1012.11
2022-12-13T01:49:45.571Z,1012.06
2022-12-13T01:51:59.406Z,1012.08
2022-12-13T01:54:13.733Z,1012.09
2022-12-13T01:56:28.769Z,1012.05
2022-12-13T01:58:42.901Z,1012.05
2022-12-13T02:00:58.240Z,1012.00
2022-12-13T02:03:21.063Z,1012.02
2022-12-13T02:05:28.798Z,1012.02
2022-12-13T02:07:40.743Z,1012.01
2022-12-13T02:09:56.903Z,1012.04
2022-12-13T02:12:13.372Z,1012.09
2022-12-13T02:14:31.429Z,1012.08
2022-12-13T02:16:46.106Z,1012.08
2022-12-13T02:19:04.322Z,1012.08
2022-12-13T02:21:23.284Z,1012.06
2022-12-13T02:23:37.942Z,1012.14
2022-12-13T02:25:55.029Z,1012.12
2022-12-13T02:28:31.739Z,1012.09
2022-12-13T02:30:24.161Z,1012.08
2022-12-13T02:32:41.431Z,1012.07
2022-12-13T02:34:54.349Z,1012.05
2022-12-13T02:37:18.294Z,1012.11
2022-12-13T02:39:30.135Z,1012.13
2022-12-13T02:41:36.688Z,1012.16
2022-12-13T02:44:01.342Z,1012.15
2022-12-13T02:46:10.425Z,1012.11
2022-12-13T02:48:27.791Z,1012.11
2022-12-13T02:50:41.525Z,1012.17
2022-12-13T02:52:57.642Z,1012.19
2022-12-13T02:55:16.043Z,1012.17
2022-12-13T02:57:26.316Z,1012.11
2022-12-13T02:59:46.233Z,1012.07
2022-12-13T03:02:10.327Z,1012.01
2022-12-13T03:04:14.183Z,1012.03
2022-12-13T03:06:34.211Z,1012.02
2022-12-13T03:08:44.969Z,1012.05
2022-12-13T03:10:58.204Z,1012.02
2022-12-13T03:13:12.523Z,1012.04
2022-12-13T03:15:30.022Z,1012.03
2022-12-13T03:17:50.027Z,1012.02
2022-12-13T03:20:12.611Z,1011.91
2022-12-13T03:22:22.342Z,1011.95
2022-12-13T03:24:37.385Z,1011.93
2022-12-13T03:27:00.550Z,1011.92
2022-12-13T03:29:08.744Z,1011.91
2022-12-13T03:31:24.045Z,1011.83
2022-12-13T03:33:40.465Z,1011.82
2022-12-13T03:35:55.887Z,1011.80
2022-12-13T03:38:22.058Z,1011.78
2022-12-13T03:40:33.604Z,1011.77
2022-12-13T03:42:51.515Z,1011.75
2022-12-13T03:45:09.247Z,1011.75
2022-12-13T03:47:27.345Z,1011.80
2022-12-13T03:49:46.542Z,1011.78
2022-12-13T03:52:05.885Z,1011.75
2022-12-13T03:54:20.302Z,1011.75
2022-12-13T03:56:39.638Z,1011.75
2022-12-13T03:58:56.935Z,1011.76
2022-12-13T04:01:10.905Z,1011.70
2022-12-13T04:03:26.188Z,1011.71
2022-12-13T04:05:38.757Z,1011.70
2022-12-13T04:07:56.208Z,1011.66
2022-12-13T04:10:25.899Z,1011.66
2022-12-13T04:11:11.770Z,1011.66
2022-12-13T04:13:25.342Z,1011.69
2022-12-13T04:15:44.868Z,1011.67
2022-12-13T04:17:58.077Z,1011.61
2022-12-13T04:20:11.661Z,1011.69
2022-12-13T04:22:27.765Z,1011.63
2022-12-13T04:24:44.539Z,1011.63
2022-12-13T04:27:01.090Z,1011.69
2022-12-13T04:29:15.573Z,1011.65
2022-12-13T04:31:33.759Z,1011.66
2022-12-13T04:33:51.875Z,1011.67
2022-12-13T04:36:05.410Z,1011.63
2022-12-13T04:38:19.322Z,1011.65
2022-12-13T04:40:37.613Z,1011.65
2022-12-13T04:42:54.598Z,1011.66
2022-12-13T04:45:09.256Z,1011.71
2022-12-13T04:47:27.589Z,1011.72
2022-12-13T04:49:42.005Z,1011.72
2022-12-13T04:52:00.845Z,1011.67
2022-12-13T04:54:23.955Z,1011.71
2022-12-13T04:55:12.194Z,1011.69
2022-12-13T04:57:35.881Z,1011.73
2022-12-13T04:59:44.803Z,1011.78
2022-12-13T05:02:04.896Z,1011.82
2022-12-13T05:04:13.524Z,1011.82
2022-12-13T05:06:27.919Z,1011.84
2022-12-13T05:08:43.762Z,1011.80
2022-12-13T05:10:59.712Z,1011.78
2022-12-13T05:13:14.980Z,1011.76
2022-12-13T05:15:28.300Z,1011.76
2022-12-13T05:17:44.012Z,1011.75
2022-12-13T05:20:00.271Z,1011.79
2022-12-13T05:22:20.286Z,1011.78
2022-12-13T05:24:32.975Z,1011.72
2022-12-13T05:26:48.042Z,1011.69
2022-12-13T05:29:04.413Z,1011.65
2022-12-13T05:31:23.327Z,1011.67
2022-12-13T05:33:32.846Z,1011.62
2022-12-13T05:35:45.888Z,1011.65
2022-12-13T05:38:01.450Z,1011.67
2022-12-13T05:40:17.601Z,1011.69
2022-12-13T05:42:37.762Z,1011.74
2022-12-13T05:44:48.489Z,1011.73
2022-12-13T05:47:02.968Z,1011.72
2022-12-13T05:49:18.485Z,1011.71
2022-12-13T05:51:35.553Z,1011.74
2022-12-13T05:54:02.388Z,1011.71
2022-12-13T05:56:07.086Z,1011.69
2022-12-13T05:58:27.069Z,1011.81
2022-12-13T06:00:41.603Z,1011.80
2022-12-13T06:03:00.927Z,1011.80
2022-12-13T06:05:17.865Z,1011.83
2022-12-13T06:07:30.834Z,1011.86
2022-12-13T06:09:43.121Z,1011.90
2022-12-13T06:12:01.224Z,1011.95
2022-12-13T06:14:21.520Z,1011.94
2022-12-13T06:15:22.522Z,1011.89
2022-12-13T06:17:25.920Z,1012.04
2022-12-13T06:19:39.959Z,1012.05
2022-12-13T06:21:52.158Z,1012.05
2022-12-13T06:24:06.265Z,1012.03
2022-12-13T06:26:23.675Z,1012.00
2022-12-13T06:28:33.358Z,1011.99
2022-12-13T06:30:47.571Z,1012.00
2022-12-13T06:33:02.619Z,1012.00
2022-12-13T06:35:28.582Z,1012.05
2022-12-13T06:36:18.133Z,1011.99
2022-12-13T06:38:32.764Z,1012.05
2022-12-13T06:40:46.911Z,1012.07
2022-12-13T06:42:59.983Z,1012.07
2022-12-13T06:45:14.538Z,1012.07
2022-12-13T06:47:31.661Z,1012.13
2022-12-13T06:49:44.844Z,1012.10
2022-12-13T06:51:59.276Z,1012.17
2022-12-13T06:54:21.981Z,1012.17
2022-12-13T06:56:28.624Z,1012.19
2022-12-13T06:58:44.116Z,1012.18
2022-12-13T07:00:58.878Z,1012.21
2022-12-13T07:03:10.845Z,1012.19
2022-12-13T07:05:26.449Z,1012.14
2022-12-13T07:07:40.022Z,1012.17
2022-12-13T07:09:53.458Z,1012.20
2022-12-13T07:12:07.704Z,1012.23
2022-12-13T07:14:40.633Z,1012.24
2022-12-13T07:16:44.808Z,1012.29
2022-12-13T07:19:01.676Z,1012.29
2022-12-13T07:21:21.898Z,1012.31
2022-12-13T07:23:27.143Z,1012.33
2022-12-13T07:25:40.329Z,1012.35
2022-12-13T07:27:54.831Z,1012.35
2022-12-13T07:30:13.547Z,1012.35
2022-12-13T07:32:28.547Z,1012.34
2022-12-13T07:34:43.821Z,1012.40
2022-12-13T07:36:58.244Z,1012.39
2022-12-13T07:39:17.810Z,1012.46
2022-12-13T07:41:30.583Z,1012.46
2022-12-13T07:43:48.005Z,1012.48
2022-12-13T07:46:03.241Z,1012.47
2022-12-13T07:48:16.206Z,1012.49
2022-12-13T07:50:28.612Z,1012.53
2022-12-13T07:52:43.488Z,1012.52
2022-12-13T07:54:57.618Z,1012.54
2022-12-13T07:57:10.968Z,1012.55
2022-12-13T07:59:28.751Z,1012.59
2022-12-13T08:01:36.359Z,1012.62
2022-12-13T08:03:51.235Z,1012.63
2022-12-13T08:06:07.133Z,1012.61
2022-12-13T08:08:19.950Z,1012.60
2022-12-13T08:10:33.442Z,1012.58
2022-12-13T08:12:52.366Z,1012.62
2022-12-13T08:15:14.091Z,1012.64
2022-12-13T08:17:27.870Z,1012.63
2022-12-13T08:19:45.847Z,1012.65
2022-12-13T08:22:04.089Z,1012.62
2022-12-13T08:24:22.073Z,1012.66
2022-12-13T08:26:40.206Z,1012.67
2022-12-13T08:28:58.199Z,1012.68
2022-12-13T08:31:12.232Z,1012.66
2022-12-13T08:33:26.917Z,1012.68
2022-12-13T08:35:42.572Z,1012.65
2022-12-13T08:37:58.208Z,1012.61
2022-12-13T08:40:13.827Z,1012.68
2022-12-13T08:42:34.286Z,1012.62
2022-12-13T08:44:55.760Z,1012.69
2022-12-13T08:47:10.560Z,1012.73
2022-12-13T08:49:26.230Z,1012.68
2022-12-13T08:51:44.400Z,1012.74
2022-12-13T08:54:10.509Z,1012.75
2022-12-13T08:56:18.678Z,1012.88
2022-12-13T08:58:34.106Z,1012.85
2022-12-13T09:00:55.253Z,1012.80
2022-12-13T09:03:10.903Z,1012.82
2022-12-13T09:05:32.317Z,1012.84
2022-12-13T09:07:45.779Z,1012.78
2022-12-13T09:10:07.332Z,1012.77
2022-12-13T09:11:11.352Z,1012.77
2022-12-13T09:12:11.002Z,1012.76
2022-12-13T09:13:03.282Z,1012.77
2022-12-13T09:15:22.178Z,1012.82
2022-12-13T09:17:37.096Z,1012.79
2022-12-13T09:19:51.032Z,1012.81
2022-12-13T09:22:08.266Z,1012.85
2022-12-13T09:24:26.328Z,1012.80
2022-12-13T09:26:44.321Z,1012.82
2022-12-13T09:28:57.522Z,1012.82
2022-12-13T09:29:58.366Z,1012.81
2022-12-13T09:32:11.994Z,1012.81
2022-12-13T09:34:28.573Z,1012.82
2022-12-13T09:36:44.200Z,1012.79
2022-12-13T09:38:59.711Z,1012.80
2022-12-13T09:41:19.597Z,1012.81
2022-12-13T09:43:43.041Z,1012.79
2022-12-13T10:01:28.726Z,1012.76
2022-12-13T10:05:05.482Z,1012.76
